createdAt,value
2023-05-09T00:03:59.799Z,8.48
2023-05-09T00:09:03.134Z,8.49
2023-05-09T00:14:06.768Z,8.44
2023-05-09T00:19:09.973Z,8.40
2023-05-09T00:24:13.139Z,8.37
2023-05-09T00:29:16.214Z,8.29
2023-05-09T00:34:19.856Z,8.21
2023-05-09T00:39:23.031Z,8.16
2023-05-09T00:44:26.183Z,8.10
2023-05-09T00:49:29.680Z,8.05
2023-05-09T00:54:32.839Z,7.98
2023-05-09T00:59:36.089Z,7.93
2023-05-09T01:04:39.860Z,7.85
2023-05-09T01:10:09.658Z,7.67
2023-05-09T01:15:23.357Z,7.62
2023-05-09T01:20:46.127Z,7.47
2023-05-09T01:26:22.437Z,7.37
2023-05-09T01:31:26.937Z,7.30
2023-05-09T01:36:33.469Z,7.22
2023-05-09T01:41:38.409Z,7.18
2023-05-09T01:46:43.270Z,7.10
2023-05-09T01:51:48.431Z,7.03
2023-05-09T01:56:51.953Z,6.90
2023-05-09T02:01:56.487Z,6.84
2023-05-09T02:07:00.909Z,6.77
2023-05-09T02:12:07.118Z,6.72
2023-05-09T02:17:11.224Z,6.67
2023-05-09T02:22:14.996Z,6.60
2023-05-09T02:27:18.848Z,6.56
2023-05-09T02:32:27.416Z,6.49
2023-05-09T02:37:31.160Z,6.42
2023-05-09T02:42:34.196Z,6.41
2023-05-09T02:47:38.308Z,6.38
2023-05-09T02:52:41.340Z,6.39
2023-05-09T02:57:44.394Z,6.37
2023-05-09T03:02:47.667Z,6.30
2023-05-09T03:07:51.615Z,6.29
2023-05-09T03:12:54.689Z,6.27
2023-05-09T03:17:57.898Z,6.22
2023-05-09T03:23:00.907Z,6.21
2023-05-09T03:28:05.266Z,6.20
2023-05-09T03:33:08.417Z,6.20
2023-05-09T03:38:11.384Z,6.25
2023-05-09T03:43:14.205Z,6.26
2023-05-09T03:48:17.443Z,6.36
2023-05-09T03:53:20.731Z,6.49
2023-05-09T03:58:23.719Z,6.60
2023-05-09T04:03:27.067Z,6.75
2023-05-09T04:08:30.291Z,6.90
2023-05-09T04:13:34.603Z,7.09
2023-05-09T04:18:42.136Z,7.29
2023-05-09T04:23:45.238Z,7.50
2023-05-09T04:28:48.276Z,7.68
2023-05-09T04:33:51.615Z,7.87
2023-05-09T04:38:54.642Z,8.05
2023-05-09T04:43:57.552Z,8.26
2023-05-09T04:49:00.833Z,8.46
2023-05-09T04:54:04.086Z,8.66
2023-05-09T04:59:07.098Z,8.83
2023-05-09T05:04:10.246Z,8.99
2023-05-09T05:09:13.797Z,9.19
2023-05-09T05:14:16.783Z,9.24
2023-05-09T05:19:19.987Z,9.41
2023-05-09T05:24:23.019Z,9.49
2023-05-09T05:29:26.574Z,9.88
2023-05-09T05:34:29.636Z,10.65
2023-05-09T05:39:32.765Z,10.55
2023-05-09T05:44:35.857Z,10.43
2023-05-09T05:49:39.608Z,10.45
2023-05-09T05:54:42.618Z,10.49
2023-05-09T05:59:48.478Z,10.49
2023-05-09T06:04:52.267Z,10.55
2023-05-09T06:09:57.069Z,10.63
2023-05-09T06:15:00.622Z,10.71
2023-05-09T06:20:06.197Z,10.75
2023-05-09T06:25:10.661Z,11.02
2023-05-09T06:30:25.763Z,11.15
2023-05-09T06:35:31.108Z,11.34
2023-05-09T06:40:34.226Z,11.50
2023-05-09T06:45:37.345Z,11.74
2023-05-09T06:50:40.487Z,11.91
2023-05-09T06:55:44.096Z,12.07
2023-05-09T07:00:47.838Z,12.29
2023-05-09T07:05:52.504Z,12.38
2023-05-09T07:10:55.573Z,12.60
2023-05-09T07:15:58.543Z,12.70
2023-05-09T07:21:01.527Z,12.65
2023-05-09T07:26:04.610Z,12.89
2023-05-09T07:31:09.546Z,13.09
2023-05-09T07:36:13.819Z,13.44
2023-05-09T07:41:16.775Z,13.60
2023-05-09T07:46:19.554Z,13.79
2023-05-09T07:51:22.693Z,13.94
2023-05-09T07:56:26.660Z,14.07
2023-05-09T08:01:29.912Z,14.23
2023-05-09T08:06:33.368Z,14.45
2023-05-09T08:11:36.542Z,14.51
2023-05-09T08:16:39.698Z,14.57
2023-05-09T08:21:42.955Z,14.55
2023-05-09T08:26:46.063Z,14.79
2023-05-09T08:31:49.194Z,15.07
2023-05-09T08:36:52.194Z,15.21
2023-05-09T08:42:01.882Z,15.42
2023-05-09T08:47:05.705Z,15.81
2023-05-09T08:52:09.034Z,16.03
2023-05-09T08:57:12.321Z,16.06
2023-05-09T09:02:15.613Z,16.11
2023-05-09T09:07:20.128Z,16.00
2023-05-09T09:12:24.992Z,16.18
2023-05-09T09:17:30.703Z,16.36
2023-05-09T09:22:34.999Z,16.64
2023-05-09T09:27:38.127Z,16.80
2023-05-09T09:32:42.167Z,16.91
2023-05-09T09:37:45.249Z,16.88
2023-05-09T09:42:48.958Z,16.87
2023-05-09T09:47:52.033Z,16.66
2023-05-09T09:52:56.696Z,16.75
2023-05-09T09:57:59.967Z,16.66
2023-05-09T10:03:03.127Z,16.66
2023-05-09T10:08:10.086Z,16.77
2023-05-09T10:13:13.147Z,16.51
2023-05-09T10:18:20.369Z,16.92
2023-05-09T10:23:25.479Z,17.21
2023-05-09T10:28:33.860Z,17.27
2023-05-09T10:33:49.928Z,17.37
2023-05-09T10:38:56.503Z,17.34
2023-05-09T10:43:59.945Z,17.23
2023-05-09T10:49:03.367Z,17.36
2023-05-09T10:54:16.258Z,18.01
2023-05-09T10:59:40.898Z,17.96
2023-05-09T11:04:45.333Z,17.68
2023-05-09T11:10:12.757Z,17.77
2023-05-09T11:15:19.192Z,18.15
2023-05-09T11:20:29.469Z,18.26
2023-05-09T11:25:32.607Z,18.41
2023-05-09T11:30:44.119Z,18.50
2023-05-09T11:35:47.497Z,18.51
2023-05-09T11:40:53.814Z,18.57
2023-05-09T11:45:57.416Z,18.95
2023-05-09T11:51:02.591Z,18.80
2023-05-09T11:56:06.501Z,18.36
2023-05-09T12:01:12.398Z,18.49
2023-05-09T12:06:20.150Z,18.68
2023-05-09T12:11:24.960Z,18.35
2023-05-09T12:16:28.110Z,18.25
2023-05-09T12:21:31.565Z,17.85
2023-05-09T12:26:34.585Z,17.93
2023-05-09T12:31:37.451Z,17.71
2023-05-09T12:36:40.523Z,17.78
2023-05-09T12:41:53.869Z,17.53
2023-05-09T12:47:05.037Z,17.27
2023-05-09T12:52:20.409Z,17.26
2023-05-09T12:57:28.442Z,17.52
2023-05-09T13:02:42.257Z,18.05
2023-05-09T13:07:48.810Z,18.37
2023-05-09T13:12:53.630Z,18.40
2023-05-09T13:17:56.716Z,18.61
2023-05-09T13:22:59.534Z,18.92
2023-05-09T13:28:03.676Z,19.38
2023-05-09T13:33:24.075Z,19.31
2023-05-09T13:38:31.022Z,19.09
2023-05-09T13:43:35.066Z,19.04
2023-05-09T13:48:38.050Z,19.36
2023-05-09T13:53:41.117Z,19.37
2023-05-09T13:58:44.549Z,19.12
2023-05-09T14:03:50.140Z,18.96
2023-05-09T14:08:53.365Z,18.88
2023-05-09T14:13:56.374Z,18.41
2023-05-09T14:18:59.357Z,18.45
2023-05-09T14:24:02.350Z,18.43
2023-05-09T14:29:06.720Z,18.10
2023-05-09T14:34:09.798Z,17.88
2023-05-09T14:39:12.849Z,18.05
2023-05-09T14:44:17.554Z,18.43
2023-05-09T14:49:21.938Z,18.36
2023-05-09T14:54:25.185Z,18.14
2023-05-09T14:59:27.896Z,18.24
2023-05-09T15:04:31.434Z,18.76
2023-05-09T15:09:34.793Z,19.11
2023-05-09T15:14:38.244Z,19.50
2023-05-09T15:19:41.841Z,19.55
2023-05-09T15:24:46.028Z,19.13
2023-05-09T15:29:49.156Z,18.89
2023-05-09T15:34:52.214Z,19.14
2023-05-09T15:39:55.924Z,19.26
2023-05-09T15:44:59.004Z,19.19
2023-05-09T15:50:02.001Z,19.42
2023-05-09T15:55:05.858Z,19.43
2023-05-09T16:00:10.069Z,19.47
2023-05-09T16:05:13.219Z,19.40
2023-05-09T16:10:16.728Z,19.19
2023-05-09T16:15:19.979Z,19.10
2023-05-09T16:20:23.232Z,18.87
2023-05-09T16:25:26.201Z,18.40
2023-05-09T16:30:29.550Z,18.13
2023-05-09T16:35:32.594Z,18.37
2023-05-09T16:40:35.596Z,18.58
2023-05-09T16:45:38.696Z,18.62
2023-05-09T16:50:45.548Z,18.44
2023-05-09T16:55:49.869Z,18.18
2023-05-09T17:00:53.506Z,18.01
2023-05-09T17:05:56.499Z,17.69
2023-05-09T17:10:59.431Z,17.36
2023-05-09T17:16:02.476Z,17.12
2023-05-09T17:21:06.689Z,17.01
2023-05-09T17:26:10.057Z,16.86
2023-05-09T17:31:13.397Z,16.71
2023-05-09T17:36:16.288Z,16.54
2023-05-09T17:41:19.843Z,16.38
2023-05-09T17:46:23.715Z,16.24
2023-05-09T17:51:27.079Z,16.08
2023-05-09T17:56:30.151Z,15.98
2023-05-09T18:01:33.244Z,15.83
2023-05-09T18:06:36.798Z,15.72
2023-05-09T18:11:42.680Z,15.61
2023-05-09T18:16:46.438Z,15.49
2023-05-09T18:21:49.558Z,15.38
2023-05-09T18:26:52.768Z,15.27
2023-05-09T18:31:56.265Z,15.16
2023-05-09T18:36:59.775Z,15.04
2023-05-09T18:42:03.118Z,14.83
2023-05-09T18:47:06.423Z,14.60
2023-05-09T18:52:10.963Z,14.40
2023-05-09T18:57:14.362Z,14.20
2023-05-09T19:02:20.919Z,13.97
2023-05-09T19:07:24.242Z,13.73
2023-05-09T19:12:28.868Z,13.49
2023-05-09T19:17:31.833Z,13.27
2023-05-09T19:22:36.356Z,13.01
2023-05-09T19:27:39.726Z,12.81
2023-05-09T19:32:44.308Z,12.59
2023-05-09T19:37:47.348Z,12.41
2023-05-09T19:42:51.049Z,12.25
2023-05-09T19:47:55.037Z,12.10
2023-05-09T19:52:58.590Z,11.96
2023-05-09T19:58:01.777Z,11.82
2023-05-09T20:03:05.058Z,11.72
2023-05-09T20:08:08.022Z,11.62
2023-05-09T20:13:11.042Z,11.48
2023-05-09T20:18:16.439Z,11.40
2023-05-09T20:23:19.415Z,11.25
2023-05-09T20:28:22.654Z,11.15
2023-05-09T20:33:25.724Z,11.08
2023-05-09T20:38:28.575Z,11.03
2023-05-09T20:43:31.683Z,10.94
2023-05-09T20:48:34.640Z,10.84
2023-05-09T20:53:38.131Z,10.73
2023-05-09T20:58:41.161Z,10.66
2023-05-09T21:03:44.321Z,10.56
2023-05-09T21:08:47.497Z,10.50
2023-05-09T21:13:50.772Z,10.44
2023-05-09T21:18:54.877Z,10.40
2023-05-09T21:23:57.773Z,10.38
2023-05-09T21:29:00.689Z,10.37
2023-05-09T21:34:09.807Z,10.34
2023-05-09T21:39:13.089Z,10.35
2023-05-09T21:44:16.549Z,10.36
2023-05-09T21:49:21.579Z,10.39
2023-05-09T21:54:24.680Z,10.44
2023-05-09T21:59:27.715Z,10.56
2023-05-09T22:04:30.679Z,10.67
2023-05-09T22:09:33.684Z,10.82
2023-05-09T22:14:42.210Z,10.94
2023-05-09T22:19:52.119Z,11.04
2023-05-09T22:24:55.325Z,11.09
2023-05-09T22:29:58.441Z,11.09
2023-05-09T22:35:01.452Z,11.13
2023-05-09T22:40:05.666Z,11.16
2023-05-09T22:45:09.183Z,11.17
2023-05-09T22:50:13.152Z,11.22
2023-05-09T22:55:16.165Z,11.25
2023-05-09T23:00:19.266Z,11.25
2023-05-09T23:05:22.345Z,11.31
2023-05-09T23:10:25.494Z,11.35
2023-05-09T23:15:28.494Z,11.38
2023-05-09T23:20:31.496Z,11.41
2023-05-09T23:25:34.378Z,11.36
2023-05-09T23:30:37.354Z,11.44
2023-05-09T23:35:40.515Z,11.45
2023-05-09T23:40:46.698Z,11.49
2023-05-09T23:45:50.496Z,11.48
2023-05-09T23:50:53.429Z,11.47
2023-05-09T23:55:56.431Z,11.42
